createdAt,value
2019-05-18T01:15:50.192Z,3.77
2019-05-18T01:18:25.354Z,3.77
2019-05-18T01:20:56.371Z,4.30
2019-05-18T01:23:27.586Z,4.47
2019-05-18T01:25:59.680Z,3.70
2019-05-18T01:28:31.463Z,4.65
2019-05-18T01:31:02.583Z,4.00
2019-05-18T01:33:33.710Z,3.70
2019-05-18T01:36:04.801Z,3.75
2019-05-18T01:38:36.083Z,4.37
2019-05-18T01:41:07.335Z,4.40
2019-05-18T01:43:38.494Z,4.45
2019-05-18T01:46:09.637Z,4.40
2019-05-18T01:48:41.871Z,4.08
2019-05-18T01:51:12.991Z,4.22
2019-05-18T01:53:44.134Z,3.77
2019-05-18T01:56:15.205Z,4.10
2019-05-18T01:58:48.431Z,4.40
2019-05-18T02:01:19.541Z,4.05
2019-05-18T02:03:50.688Z,4.20
2019-05-18T02:06:21.799Z,4.30
2019-05-18T02:08:53.033Z,3.87
2019-05-18T02:11:24.171Z,4.17
2019-05-18T02:13:59.428Z,4.17
2019-05-18T02:16:30.669Z,3.80
2019-05-18T02:19:01.868Z,4.25
2019-05-18T02:21:32.949Z,4.12
2019-05-18T02:24:04.268Z,4.07
2019-05-18T02:26:35.464Z,4.00
2019-05-18T02:29:08.748Z,4.22
2019-05-18T02:31:39.891Z,4.40
2019-05-18T02:34:11.367Z,4.37
2019-05-18T02:36:44.446Z,4.15
2019-05-18T02:39:15.630Z,4.28
2019-05-18T02:41:48.951Z,4.40
2019-05-18T02:44:20.049Z,4.00
2019-05-18T02:46:52.250Z,3.85
2019-05-18T02:49:23.318Z,4.17
2019-05-18T02:51:54.493Z,4.25
2019-05-18T02:54:25.631Z,3.77
2019-05-18T02:57:00.776Z,3.98
2019-05-18T02:59:31.910Z,4.22
2019-05-18T03:02:03.195Z,4.20
2019-05-18T03:04:34.575Z,3.90
2019-05-18T03:07:05.736Z,3.83
2019-05-18T03:09:36.862Z,3.87
2019-05-18T03:12:08.014Z,3.67
2019-05-18T03:14:39.208Z,4.40
2019-05-18T03:17:10.657Z,4.20
2019-05-18T03:19:41.835Z,3.98
2019-05-18T03:22:12.931Z,4.10
2019-05-18T03:24:44.069Z,4.08
2019-05-18T03:27:15.191Z,4.05
2019-05-18T03:29:46.351Z,3.90
2019-05-18T03:32:17.428Z,4.20
2019-05-18T03:34:48.513Z,3.98
2019-05-18T03:37:20.096Z,4.20
2019-05-18T03:39:51.180Z,4.20
2019-05-18T03:42:22.311Z,4.40
2019-05-18T03:44:53.601Z,4.10
2019-05-18T03:47:25.754Z,4.05
2019-05-18T03:49:56.912Z,4.25
2019-05-18T03:52:28.058Z,4.10
2019-05-18T03:54:59.282Z,4.35
2019-05-18T03:57:30.377Z,4.42
2019-05-18T04:00:05.726Z,4.08
2019-05-18T04:02:36.882Z,4.28
2019-05-18T04:05:08.023Z,3.85
2019-05-18T04:07:39.136Z,4.15
2019-05-18T04:10:10.993Z,4.10
2019-05-18T04:12:42.105Z,4.30
2019-05-18T04:15:15.423Z,3.92
2019-05-18T04:17:46.646Z,4.62
2019-05-18T04:20:17.810Z,4.00
2019-05-18T04:22:48.935Z,4.42
2019-05-18T04:25:22.231Z,4.30
2019-05-18T04:27:53.391Z,3.90
2019-05-18T04:30:24.573Z,4.10
2019-05-18T04:32:55.768Z,4.28
2019-05-18T04:35:26.903Z,4.33
2019-05-18T04:37:59.007Z,3.80
2019-05-18T04:40:30.103Z,4.10
2019-05-18T04:43:01.302Z,4.03
2019-05-18T04:45:34.446Z,3.77
2019-05-18T04:48:05.586Z,4.15
2019-05-18T04:50:38.926Z,4.40
2019-05-18T04:53:10.234Z,4.23
2019-05-18T04:55:41.383Z,4.22
2019-05-18T04:58:14.297Z,4.42
2019-05-18T05:00:45.564Z,4.20
2019-05-18T05:03:16.784Z,4.17
2019-05-18T05:05:48.016Z,4.47
2019-05-18T05:08:21.190Z,4.90
2019-05-18T05:10:52.363Z,4.30
2019-05-18T05:13:23.530Z,4.50
2019-05-18T05:15:55.607Z,4.50
2019-05-18T05:18:27.359Z,4.43
2019-05-18T05:20:58.689Z,4.03
2019-05-18T05:23:29.796Z,4.30
2019-05-18T05:26:00.982Z,4.60
2019-05-18T05:28:32.125Z,4.35
2019-05-18T05:31:05.541Z,4.37
2019-05-18T05:33:39.005Z,4.40
2019-05-18T05:36:10.153Z,4.23
2019-05-18T05:38:41.381Z,4.78
2019-05-18T05:41:16.471Z,4.33
2019-05-18T05:43:46.435Z,4.53
2019-05-18T05:46:21.827Z,4.50
2019-05-18T05:48:54.225Z,4.60
2019-05-18T05:51:25.433Z,4.40
2019-05-18T05:53:56.587Z,4.78
2019-05-18T05:56:27.715Z,4.55
2019-05-18T05:58:58.823Z,4.30
2019-05-18T06:01:30.162Z,4.28
2019-05-18T06:04:01.282Z,4.15
2019-05-18T06:06:36.724Z,4.42
2019-05-18T06:09:07.922Z,4.40
2019-05-18T06:11:39.067Z,4.67
2019-05-18T06:14:10.199Z,4.90
2019-05-18T06:16:42.353Z,4.50
2019-05-18T06:19:13.630Z,4.47
2019-05-18T06:21:44.783Z,4.42
2019-05-18T06:24:15.973Z,4.33
2019-05-18T06:26:49.122Z,4.58
2019-05-18T06:29:20.297Z,4.28
2019-05-18T06:31:52.779Z,4.05
2019-05-18T06:34:24.130Z,4.20
2019-05-18T06:36:55.976Z,4.20
2019-05-18T06:39:27.408Z,4.30
2019-05-18T06:41:58.708Z,4.62
2019-05-18T06:44:29.948Z,4.10
2019-05-18T06:47:01.126Z,4.58
2019-05-18T06:49:32.253Z,4.00
2019-05-18T06:52:03.470Z,4.47
2019-05-18T06:54:34.751Z,4.53
2019-05-18T06:57:05.867Z,4.58
2019-05-18T06:59:38.183Z,4.60
2019-05-18T07:02:09.336Z,4.40
2019-05-18T07:04:40.514Z,4.20
2019-05-18T07:07:11.592Z,4.43
2019-05-18T07:09:42.718Z,4.50
2019-05-18T07:12:13.963Z,4.35
2019-05-18T07:14:45.176Z,4.50
2019-05-18T07:17:16.305Z,4.73
2019-05-18T07:19:47.882Z,4.25
2019-05-18T07:22:18.985Z,4.55
2019-05-18T07:24:52.069Z,4.28
2019-05-18T07:27:23.217Z,4.28
2019-05-18T07:29:54.393Z,4.22
2019-05-18T07:32:25.666Z,4.03
2019-05-18T07:34:57.845Z,4.22
2019-05-18T07:37:29.037Z,4.22
2019-05-18T07:40:08.232Z,4.40
2019-05-18T07:42:39.624Z,4.17
2019-05-18T07:45:12.220Z,4.37
2019-05-18T07:47:43.439Z,4.30
2019-05-18T07:50:18.374Z,3.90
2019-05-18T07:52:49.992Z,4.10
2019-05-18T07:55:21.218Z,4.05
2019-05-18T07:57:52.439Z,4.30
2019-05-18T08:00:23.653Z,4.30
2019-05-18T08:02:54.787Z,4.00
2019-05-18T08:05:25.986Z,4.35
2019-05-18T08:07:57.156Z,3.80
2019-05-18T08:10:43.500Z,4.08
2019-05-18T08:13:13.234Z,4.50
2019-05-18T08:15:44.394Z,4.15
2019-05-18T08:18:19.612Z,4.20
2019-05-18T08:20:50.754Z,4.53
2019-05-18T08:23:21.874Z,4.25
2019-05-18T08:25:54.075Z,4.10
2019-05-18T08:28:25.287Z,4.37
2019-05-18T08:30:56.380Z,4.33
2019-05-18T08:33:27.598Z,3.83
2019-05-18T08:35:58.751Z,4.30
2019-05-18T08:38:30.580Z,4.23
2019-05-18T08:41:01.865Z,4.25
2019-05-18T08:43:35.036Z,4.00
2019-05-18T08:46:08.520Z,3.98
2019-05-18T08:48:43.752Z,4.00
2019-05-18T08:51:14.885Z,3.50
2019-05-18T08:53:46.026Z,3.83
2019-05-18T08:56:17.260Z,4.15
2019-05-18T08:58:48.408Z,4.10
2019-05-18T09:01:19.796Z,4.28
2019-05-18T09:03:50.882Z,3.60
2019-05-18T09:06:22.602Z,4.33
2019-05-18T09:08:53.785Z,4.00
2019-05-18T09:11:25.001Z,3.70
2019-05-18T09:13:56.156Z,4.20
2019-05-18T09:16:28.507Z,3.90
2019-05-18T09:18:59.909Z,4.00
2019-05-18T09:21:31.064Z,4.10
2019-05-18T09:24:02.211Z,4.25
2019-05-18T09:26:33.364Z,4.33
2019-05-18T09:29:06.696Z,3.60
2019-05-18T09:31:37.819Z,4.10
2019-05-18T09:39:09.842Z,3.90
2019-05-18T09:56:43.595Z,4.33
2019-05-18T09:59:14.728Z,4.22
2019-05-18T10:01:47.853Z,3.42
2019-05-18T10:04:22.424Z,3.80
2019-05-18T10:06:53.824Z,3.47
2019-05-18T10:09:26.040Z,4.22
2019-05-18T10:37:12.181Z,4.12
2019-05-18T10:39:43.330Z,4.08
2019-05-18T10:42:14.492Z,3.90
2019-05-18T10:44:45.682Z,4.35
2019-05-18T10:47:16.838Z,4.05
2019-05-18T10:49:48.199Z,4.58
2019-05-18T10:52:19.413Z,3.67
2019-05-18T10:54:50.532Z,3.40
2019-05-18T10:57:21.896Z,3.90
2019-05-18T10:59:53.030Z,3.55
2019-05-18T11:02:28.299Z,3.30
2019-05-18T11:10:09.347Z,3.92
2019-05-18T11:50:35.411Z,3.50
2019-05-18T11:53:06.582Z,3.90
2019-05-18T11:55:41.833Z,3.87
2019-05-18T11:58:15.024Z,3.70
2019-05-18T12:00:46.279Z,3.30
2019-05-18T12:03:19.778Z,3.47
2019-05-18T12:05:51.045Z,3.80
2019-05-18T12:08:22.297Z,3.87
2019-05-18T12:10:56.075Z,4.17
2019-05-18T12:13:26.471Z,3.90
2019-05-18T12:15:57.690Z,3.90
2019-05-18T12:18:28.768Z,3.60
2019-05-18T12:21:02.035Z,4.22
2019-05-18T12:23:34.699Z,4.33
2019-05-18T12:26:06.083Z,4.08
2019-05-18T12:28:39.053Z,3.80
2019-05-18T12:31:11.777Z,4.08
2019-05-18T12:33:42.893Z,4.08
2019-05-18T12:36:17.641Z,3.62
2019-05-18T12:38:48.983Z,4.20
2019-05-18T12:41:21.758Z,3.80
2019-05-18T12:43:52.889Z,4.00
2019-05-18T12:46:24.243Z,3.87
2019-05-18T12:48:56.333Z,4.00
2019-05-18T12:51:27.558Z,3.83
2019-05-18T12:53:58.790Z,3.12
2019-05-18T12:56:31.571Z,3.40
2019-05-18T12:59:03.995Z,3.70
2019-05-18T13:01:39.180Z,3.60
2019-05-18T13:04:10.390Z,3.20
2019-05-18T13:06:42.770Z,3.67
2019-05-18T13:09:14.086Z,3.77
2019-05-18T13:11:48.201Z,3.83
2019-05-18T13:14:20.401Z,3.45
2019-05-18T13:21:59.479Z,3.37
2019-05-18T13:24:44.275Z,3.45
2019-05-18T13:27:04.542Z,3.90
2019-05-18T13:29:35.844Z,3.90
2019-05-18T13:32:07.117Z,3.17
2019-05-18T13:34:42.968Z,3.75
2019-05-18T13:37:14.596Z,3.92
2019-05-18T13:39:45.796Z,3.90
2019-05-18T13:42:18.924Z,3.45
2019-05-18T13:44:50.212Z,3.90
2019-05-18T13:47:24.852Z,3.55
2019-05-18T13:49:58.277Z,3.60
2019-05-18T13:52:28.922Z,3.60
2019-05-18T13:55:04.398Z,3.58
2019-05-18T13:57:33.404Z,4.37
2019-05-18T14:00:06.454Z,3.62
2019-05-18T14:02:37.638Z,3.90
2019-05-18T14:05:08.935Z,4.05
2019-05-18T14:07:40.175Z,3.65
2019-05-18T14:10:12.690Z,3.92
2019-05-18T14:12:44.779Z,3.55
2019-05-18T14:15:18.093Z,3.45
2019-05-18T14:17:49.217Z,3.15
2019-05-18T14:20:20.601Z,3.33
2019-05-18T14:22:53.719Z,4.00
2019-05-18T14:25:24.922Z,3.67
2019-05-18T14:27:56.092Z,3.65
2019-05-18T14:30:27.318Z,3.87
2019-05-18T14:33:00.627Z,3.35
2019-05-18T14:35:33.447Z,3.30
2019-05-18T14:38:04.665Z,3.70
2019-05-18T14:40:35.833Z,3.55
2019-05-18T14:43:07.092Z,3.65
2019-05-18T14:45:38.191Z,4.70
2019-05-18T14:48:11.624Z,3.70
2019-05-18T14:50:42.792Z,3.85
2019-05-18T14:53:13.987Z,3.45
2019-05-18T14:55:45.186Z,3.50
2019-05-18T14:58:16.335Z,3.92
2019-05-18T15:00:52.563Z,3.67
2019-05-18T15:03:23.703Z,3.70
2019-05-18T15:05:54.955Z,4.00
2019-05-18T15:08:26.078Z,3.70
2019-05-18T15:10:57.286Z,3.80
2019-05-18T15:13:30.829Z,3.60
2019-05-18T15:16:02.155Z,3.52
2019-05-18T15:18:35.724Z,3.60
2019-05-18T15:21:07.039Z,3.47
2019-05-18T15:23:38.146Z,3.20
2019-05-18T15:26:11.497Z,3.60
2019-05-18T15:28:42.594Z,3.35
2019-05-18T15:31:13.765Z,3.65
2019-05-18T15:33:44.995Z,4.05
2019-05-18T15:36:20.317Z,3.52
2019-05-18T15:38:51.481Z,3.37
2019-05-18T15:41:22.632Z,4.33
2019-05-18T15:43:53.764Z,3.10
2019-05-18T15:46:24.844Z,3.50
2019-05-18T15:48:56.039Z,3.40
2019-05-18T15:51:27.187Z,3.40
2019-05-18T15:54:00.619Z,3.58
2019-05-18T15:56:31.686Z,3.42
2019-05-18T15:59:02.853Z,3.37
2019-05-18T16:01:34.037Z,3.60
2019-05-18T16:04:06.689Z,3.60
2019-05-18T16:06:37.998Z,3.27
2019-05-18T16:09:11.376Z,3.65
2019-05-18T16:11:44.563Z,3.55
2019-05-18T16:14:18.206Z,3.52
2019-05-18T16:16:54.850Z,3.42
2019-05-18T16:19:23.984Z,3.40
2019-05-18T16:21:55.096Z,3.57
2019-05-18T16:24:26.214Z,3.15
2019-05-18T16:26:58.466Z,3.60
2019-05-18T16:29:32.525Z,3.65
2019-05-18T16:32:03.849Z,4.20
2019-05-18T16:34:35.096Z,3.72
2019-05-18T16:37:06.407Z,3.50
2019-05-18T16:39:37.492Z,2.90
2019-05-18T16:42:08.763Z,3.40
2019-05-18T16:44:39.992Z,3.33
2019-05-18T16:47:11.089Z,3.00
2019-05-18T16:49:42.337Z,3.27
2019-05-18T16:52:16.596Z,3.10
2019-05-18T16:54:47.720Z,3.60
2019-05-18T16:57:18.907Z,3.42
2019-05-18T16:59:50.013Z,3.47
2019-05-18T17:02:31.263Z,3.67
2019-05-18T17:04:53.869Z,3.10
2019-05-18T17:07:27.172Z,3.15
2019-05-18T17:09:58.430Z,2.87
2019-05-18T17:12:31.881Z,3.45
2019-05-18T17:15:03.076Z,3.22
2019-05-18T17:17:35.438Z,3.37
2019-05-18T17:20:07.953Z,3.25
2019-05-18T17:22:39.196Z,3.65
2019-05-18T17:25:10.722Z,3.10
2019-05-18T17:27:41.934Z,3.95
2019-05-18T17:30:13.455Z,3.47
2019-05-18T17:32:44.697Z,2.92
2019-05-18T17:35:16.113Z,3.33
2019-05-18T17:37:47.364Z,3.37
2019-05-18T17:40:18.511Z,2.83
2019-05-18T17:42:52.753Z,3.77
2019-05-18T17:45:27.845Z,3.30
2019-05-18T17:47:58.968Z,3.40
2019-05-18T17:50:30.183Z,3.60
2019-05-18T17:53:03.340Z,3.52
2019-05-18T17:55:34.604Z,3.70
2019-05-18T17:58:05.794Z,3.10
2019-05-18T18:00:36.913Z,3.55
2019-05-18T18:03:10.315Z,2.92
2019-05-18T18:05:41.595Z,3.42
2019-05-18T18:08:14.687Z,3.00
2019-05-18T18:10:48.075Z,3.22
2019-05-18T18:13:21.222Z,4.65
2019-05-18T18:15:52.379Z,4.67
2019-05-18T18:18:23.629Z,3.45
2019-05-18T18:20:54.722Z,3.12
2019-05-18T18:23:27.835Z,2.92
2019-05-18T18:25:59.062Z,3.90
2019-05-18T18:28:30.089Z,3.22
2019-05-18T18:31:01.365Z,3.77
2019-05-18T18:33:32.454Z,3.80
2019-05-18T18:36:03.618Z,3.37
2019-05-18T18:38:34.982Z,3.83
2019-05-18T18:41:06.096Z,3.75
2019-05-18T18:43:37.283Z,4.12
2019-05-18T18:46:08.379Z,4.22
2019-05-18T18:48:39.663Z,4.65
2019-05-18T18:51:15.026Z,4.53
2019-05-18T18:53:48.353Z,5.03
2019-05-18T18:56:19.556Z,4.37
2019-05-18T18:58:50.662Z,4.58
2019-05-18T19:01:22.308Z,3.58
2019-05-18T19:03:54.711Z,4.20
2019-05-18T19:06:29.305Z,4.78
2019-05-18T19:09:00.660Z,4.37
2019-05-18T19:11:33.500Z,4.75
2019-05-18T19:14:05.649Z,4.75
2019-05-18T19:16:36.935Z,4.70
2019-05-18T19:19:08.183Z,4.75
2019-05-18T19:21:39.317Z,4.58
2019-05-18T19:24:14.573Z,4.75
2019-05-18T19:26:45.779Z,5.22
2019-05-18T19:29:16.951Z,4.37
2019-05-18T19:31:48.053Z,4.55
2019-05-18T19:34:21.155Z,4.90
2019-05-18T19:36:52.250Z,4.33
2019-05-18T19:39:23.401Z,4.25
2019-05-18T19:41:54.680Z,4.30
2019-05-18T19:44:25.889Z,4.55
2019-05-18T21:30:08.875Z,3.60
2019-05-18T21:32:42.920Z,3.52
2019-05-18T21:35:14.461Z,3.33
2019-05-18T21:37:45.698Z,4.03
2019-05-18T21:40:16.944Z,3.95
2019-05-18T21:42:53.669Z,3.92
2019-05-18T21:45:24.810Z,4.15
2019-05-18T21:47:56.123Z,3.85
2019-05-18T21:50:27.270Z,3.87
2019-05-18T22:03:03.469Z,3.95
2019-05-18T22:05:38.759Z,3.30
